sensor_id;sensor_type;location;lat;lon;timestamp;P1;durP1;ratioP1;P2;durP2;ratioP2
40204;SDS011;26963;42.666;23.366;2023-03-01T00:01:41;5.55;;;3.88;;
40204;SDS011;26963;42.666;23.366;2023-03-01T00:04:06;5.90;;;4.18;;
40204;SDS011;26963;42.666;23.366;2023-03-01T00:06:32;5.15;;;4.07;;
40204;SDS011;26963;42.666;23.366;2023-03-01T00:08:57;6.03;;;3.65;;
40204;SDS011;26963;42.666;23.366;2023-03-01T00:11:24;5.90;;;4.47;;
40204;SDS011;26963;42.666;23.366;2023-03-01T00:13:55;5.00;;;3.63;;
40204;SDS011;26963;42.666;23.366;2023-03-01T00:16:26;5.70;;;3.80;;
40204;SDS011;26963;42.666;23.366;2023-03-01T00:18:54;5.45;;;3.65;;
40204;SDS011;26963;42.666;23.366;2023-03-01T00:21:20;5.18;;;3.53;;
40204;SDS011;26963;42.666;23.366;2023-03-01T00:23:47;4.97;;;3.22;;
40204;SDS011;26963;42.666;23.366;2023-03-01T00:26:13;4.60;;;3.50;;
40204;SDS011;26963;42.666;23.366;2023-03-01T00:28:40;4.45;;;3.40;;
40204;SDS011;26963;42.666;23.366;2023-03-01T00:31:10;4.63;;;3.28;;
40204;SDS011;26963;42.666;23.366;2023-03-01T00:33:37;5.57;;;3.47;;
40204;SDS011;26963;42.666;23.366;2023-03-01T00:36:03;4.97;;;3.63;;
40204;SDS011;26963;42.666;23.366;2023-03-01T00:38:29;4.03;;;3.03;;
40204;SDS011;26963;42.666;23.366;2023-03-01T00:40:55;4.28;;;3.10;;
40204;SDS011;26963;42.666;23.366;2023-03-01T00:43:21;4.70;;;3.40;;
40204;SDS011;26963;42.666;23.366;2023-03-01T00:45:46;4.10;;;3.05;;
40204;SDS011;26963;42.666;23.366;2023-03-01T00:48:12;4.28;;;3.08;;
40204;SDS011;26963;42.666;23.366;2023-03-01T00:50:38;4.45;;;3.53;;
40204;SDS011;26963;42.666;23.366;2023-03-01T00:53:03;4.57;;;3.28;;
40204;SDS011;26963;42.666;23.366;2023-03-01T00:55:30;5.00;;;3.85;;
40204;SDS011;26963;42.666;23.366;2023-03-01T00:57:55;5.97;;;3.78;;
40204;SDS011;26963;42.666;23.366;2023-03-01T01:00:21;4.55;;;3.63;;
40204;SDS011;26963;42.666;23.366;2023-03-01T01:02:47;4.80;;;3.30;;
40204;SDS011;26963;42.666;23.366;2023-03-01T01:05:12;4.07;;;3.00;;
40204;SDS011;26963;42.666;23.366;2023-03-01T01:07:38;5.25;;;3.53;;
40204;SDS011;26963;42.666;23.366;2023-03-01T01:10:04;3.75;;;3.30;;
40204;SDS011;26963;42.666;23.366;2023-03-01T01:12:30;4.35;;;2.92;;
40204;SDS011;26963;42.666;23.366;2023-03-01T01:14:55;3.72;;;2.70;;
40204;SDS011;26963;42.666;23.366;2023-03-01T01:17:21;3.47;;;2.60;;
40204;SDS011;26963;42.666;23.366;2023-03-01T01:19:47;3.72;;;2.65;;
40204;SDS011;26963;42.666;23.366;2023-03-01T01:22:12;3.22;;;2.33;;
40204;SDS011;26963;42.666;23.366;2023-03-01T01:24:38;3.17;;;2.47;;
40204;SDS011;26963;42.666;23.366;2023-03-01T01:27:03;3.20;;;2.50;;
40204;SDS011;26963;42.666;23.366;2023-03-01T01:29:29;3.90;;;2.38;;
40204;SDS011;26963;42.666;23.366;2023-03-01T01:31:54;2.58;;;2.05;;
40204;SDS011;26963;42.666;23.366;2023-03-01T01:34:20;2.80;;;2.05;;
40204;SDS011;26963;42.666;23.366;2023-03-01T01:36:50;2.67;;;2.20;;
40204;SDS011;26963;42.666;23.366;2023-03-01T01:39:20;2.95;;;2.15;;
40204;SDS011;26963;42.666;23.366;2023-03-01T01:41:46;3.60;;;2.38;;
40204;SDS011;26963;42.666;23.366;2023-03-01T01:49:39;2.63;;;2.10;;
40204;SDS011;26963;42.666;23.366;2023-03-01T01:52:12;2.33;;;1.92;;
40204;SDS011;26963;42.666;23.366;2023-03-01T01:57:46;5.43;;;3.90;;
40204;SDS011;26963;42.666;23.366;2023-03-01T02:00:25;2.08;;;1.88;;
40204;SDS011;26963;42.666;23.366;2023-03-01T02:02:59;2.80;;;1.93;;
40204;SDS011;26963;42.666;23.366;2023-03-01T02:05:32;2.28;;;1.95;;
40204;SDS011;26963;42.666;23.366;2023-03-01T02:08:03;2.78;;;1.85;;
40204;SDS011;26963;42.666;23.366;2023-03-01T02:10:29;2.83;;;2.15;;
40204;SDS011;26963;42.666;23.366;2023-03-01T02:12:58;2.15;;;1.95;;
40204;SDS011;26963;42.666;23.366;2023-03-01T02:15:24;2.30;;;1.92;;
40204;SDS011;26963;42.666;23.366;2023-03-01T02:17:52;4.00;;;1.80;;
40204;SDS011;26963;42.666;23.366;2023-03-01T02:20:27;2.08;;;1.88;;
40204;SDS011;26963;42.666;23.366;2023-03-01T02:22:59;1.90;;;1.75;;
40204;SDS011;26963;42.666;23.366;2023-03-01T02:30:46;2.75;;;1.75;;
40204;SDS011;26963;42.666;23.366;2023-03-01T02:33:33;2.10;;;1.88;;
40204;SDS011;26963;42.666;23.366;2023-03-01T02:36:09;2.38;;;2.00;;
40204;SDS011;26963;42.666;23.366;2023-03-01T02:38:39;2.83;;;2.10;;
40204;SDS011;26963;42.666;23.366;2023-03-01T02:41:06;3.38;;;2.28;;
40204;SDS011;26963;42.666;23.366;2023-03-01T02:43:34;2.38;;;2.17;;
40204;SDS011;26963;42.666;23.366;2023-03-01T02:46:05;2.78;;;2.35;;
40204;SDS011;26963;42.666;23.366;2023-03-01T02:48:39;2.60;;;2.40;;
40204;SDS011;26963;42.666;23.366;2023-03-01T02:56:54;4.38;;;2.50;;
40204;SDS011;26963;42.666;23.366;2023-03-01T02:59:22;4.63;;;2.40;;
40204;SDS011;26963;42.666;23.366;2023-03-01T03:01:50;3.75;;;2.60;;
40204;SDS011;26963;42.666;23.366;2023-03-01T03:04:16;4.03;;;2.90;;
40204;SDS011;26963;42.666;23.366;2023-03-01T03:06:46;3.90;;;2.38;;
40204;SDS011;26963;42.666;23.366;2023-03-01T03:09:14;3.33;;;2.60;;
40204;SDS011;26963;42.666;23.366;2023-03-01T03:11:41;3.40;;;2.67;;
40204;SDS011;26963;42.666;23.366;2023-03-01T03:14:11;3.05;;;2.75;;
40204;SDS011;26963;42.666;23.366;2023-03-01T03:16:40;3.60;;;2.70;;
40204;SDS011;26963;42.666;23.366;2023-03-01T03:19:12;3.55;;;2.90;;
40204;SDS011;26963;42.666;23.366;2023-03-01T03:21:38;3.67;;;2.80;;
40204;SDS011;26963;42.666;23.366;2023-03-01T03:24:04;3.75;;;2.67;;
40204;SDS011;26963;42.666;23.366;2023-03-01T03:26:30;3.17;;;2.70;;
40204;SDS011;26963;42.666;23.366;2023-03-01T03:28:56;3.70;;;3.00;;
40204;SDS011;26963;42.666;23.366;2023-03-01T03:31:22;3.10;;;2.45;;
40204;SDS011;26963;42.666;23.366;2023-03-01T03:33:48;3.40;;;2.55;;
40204;SDS011;26963;42.666;23.366;2023-03-01T03:36:20;4.85;;;2.80;;
40204;SDS011;26963;42.666;23.366;2023-03-01T03:38:48;5.13;;;2.53;;
40204;SDS011;26963;42.666;23.366;2023-03-01T03:41:14;3.00;;;2.47;;
40204;SDS011;26963;42.666;23.366;2023-03-01T03:43:41;3.03;;;2.38;;
40204;SDS011;26963;42.666;23.366;2023-03-01T03:46:09;2.60;;;2.40;;
40204;SDS011;26963;42.666;23.366;2023-03-01T03:48:40;3.08;;;2.50;;
40204;SDS011;26963;42.666;23.366;2023-03-01T03:51:09;3.25;;;2.47;;
40204;SDS011;26963;42.666;23.366;2023-03-01T03:53:39;3.38;;;2.60;;
40204;SDS011;26963;42.666;23.366;2023-03-01T03:56:05;3.05;;;2.50;;
40204;SDS011;26963;42.666;23.366;2023-03-01T03:58:31;3.58;;;2.65;;
40204;SDS011;26963;42.666;23.366;2023-03-01T04:00:57;3.67;;;2.90;;
40204;SDS011;26963;42.666;23.366;2023-03-01T04:03:23;4.78;;;2.80;;
40204;SDS011;26963;42.666;23.366;2023-03-01T04:05:51;3.28;;;2.63;;
40204;SDS011;26963;42.666;23.366;2023-03-01T04:08:21;3.15;;;2.60;;
40204;SDS011;26963;42.666;23.366;2023-03-01T04:10:48;4.90;;;3.20;;
40204;SDS011;26963;42.666;23.366;2023-03-01T04:13:17;4.38;;;3.20;;
40204;SDS011;26963;42.666;23.366;2023-03-01T04:15:45;4.90;;;3.20;;
40204;SDS011;26963;42.666;23.366;2023-03-01T04:18:12;3.85;;;3.10;;
40204;SDS011;26963;42.666;23.366;2023-03-01T04:20:39;6.50;;;3.97;;
40204;SDS011;26963;42.666;23.366;2023-03-01T04:23:05;5.22;;;3.45;;
40204;SDS011;26963;42.666;23.366;2023-03-01T04:25:39;3.38;;;2.83;;
40204;SDS011;26963;42.666;23.366;2023-03-01T04:28:06;3.83;;;2.92;;
40204;SDS011;26963;42.666;23.366;2023-03-01T04:30:32;4.18;;;2.70;;
40204;SDS011;26963;42.666;23.366;2023-03-01T04:33:04;4.07;;;3.08;;
40204;SDS011;26963;42.666;23.366;2023-03-01T04:35:31;3.80;;;2.58;;
40204;SDS011;26963;42.666;23.366;2023-03-01T04:37:57;4.43;;;2.75;;
40204;SDS011;26963;42.666;23.366;2023-03-01T04:40:23;3.63;;;2.55;;
40204;SDS011;26963;42.666;23.366;2023-03-01T04:42:48;3.30;;;2.50;;
40204;SDS011;26963;42.666;23.366;2023-03-01T04:45:14;3.58;;;2.78;;
40204;SDS011;26963;42.666;23.366;2023-03-01T04:47:40;4.30;;;3.30;;
40204;SDS011;26963;42.666;23.366;2023-03-01T04:50:08;4.32;;;2.80;;
40204;SDS011;26963;42.666;23.366;2023-03-01T04:52:34;4.38;;;2.92;;
40204;SDS011;26963;42.666;23.366;2023-03-01T04:55:00;3.92;;;2.72;;
40204;SDS011;26963;42.666;23.366;2023-03-01T04:57:26;3.85;;;2.75;;
40204;SDS011;26963;42.666;23.366;2023-03-01T04:59:52;4.18;;;2.83;;
40204;SDS011;26963;42.666;23.366;2023-03-01T05:02:20;3.20;;;2.47;;
40204;SDS011;26963;42.666;23.366;2023-03-01T05:04:46;5.93;;;2.70;;
40204;SDS011;26963;42.666;23.366;2023-03-01T05:07:11;4.38;;;2.95;;
40204;SDS011;26963;42.666;23.366;2023-03-01T05:09:38;5.03;;;2.53;;
40204;SDS011;26963;42.666;23.366;2023-03-01T05:12:04;5.22;;;2.90;;
40204;SDS011;26963;42.666;23.366;2023-03-01T05:14:30;4.80;;;3.15;;
40204;SDS011;26963;42.666;23.366;2023-03-01T05:16:55;3.05;;;2.20;;
40204;SDS011;26963;42.666;23.366;2023-03-01T05:19:29;2.75;;;2.17;;
40204;SDS011;26963;42.666;23.366;2023-03-01T05:21:56;5.07;;;2.70;;
40204;SDS011;26963;42.666;23.366;2023-03-01T05:24:33;3.78;;;2.40;;
40204;SDS011;26963;42.666;23.366;2023-03-01T05:27:00;3.88;;;2.47;;
40204;SDS011;26963;42.666;23.366;2023-03-01T05:29:27;2.97;;;2.20;;
40204;SDS011;26963;42.666;23.366;2023-03-01T05:31:55;3.13;;;2.20;;
40204;SDS011;26963;42.666;23.366;2023-03-01T05:34:30;3.08;;;2.20;;
40204;SDS011;26963;42.666;23.366;2023-03-01T05:36:58;3.75;;;2.50;;
40204;SDS011;26963;42.666;23.366;2023-03-01T05:39:24;2.95;;;2.13;;
40204;SDS011;26963;42.666;23.366;2023-03-01T05:41:52;2.70;;;2.15;;
40204;SDS011;26963;42.666;23.366;2023-03-01T05:44:18;3.13;;;2.33;;
40204;SDS011;26963;42.666;23.366;2023-03-01T05:46:44;3.85;;;2.45;;
40204;SDS011;26963;42.666;23.366;2023-03-01T05:49:10;3.15;;;2.50;;
40204;SDS011;26963;42.666;23.366;2023-03-01T05:51:38;6.57;;;2.65;;
40204;SDS011;26963;42.666;23.366;2023-03-01T05:54:08;4.88;;;2.58;;
40204;SDS011;26963;42.666;23.366;2023-03-01T05:56:36;5.13;;;3.30;;
40204;SDS011;26963;42.666;23.366;2023-03-01T05:59:02;6.78;;;3.47;;
40204;SDS011;26963;42.666;23.366;2023-03-01T06:01:32;4.60;;;3.13;;
40204;SDS011;26963;42.666;23.366;2023-03-01T06:03:59;4.38;;;3.17;;
40204;SDS011;26963;42.666;23.366;2023-03-01T06:06:25;8.10;;;4.47;;
40204;SDS011;26963;42.666;23.366;2023-03-01T06:08:51;4.50;;;3.50;;
40204;SDS011;26963;42.666;23.366;2023-03-01T06:11:18;6.72;;;4.45;;
40204;SDS011;26963;42.666;23.366;2023-03-01T06:13:44;5.40;;;3.70;;
40204;SDS011;26963;42.666;23.366;2023-03-01T06:16:10;5.13;;;3.67;;
40204;SDS011;26963;42.666;23.366;2023-03-01T06:18:37;5.88;;;4.00;;
40204;SDS011;26963;42.666;23.366;2023-03-01T06:21:04;5.43;;;3.47;;
40204;SDS011;26963;42.666;23.366;2023-03-01T06:23:31;5.95;;;3.97;;
40204;SDS011;26963;42.666;23.366;2023-03-01T06:25:57;3.90;;;3.05;;
40204;SDS011;26963;42.666;23.366;2023-03-01T06:28:22;6.03;;;3.10;;
40204;SDS011;26963;42.666;23.366;2023-03-01T06:30:49;5.25;;;3.05;;
40204;SDS011;26963;42.666;23.366;2023-03-01T06:33:15;5.68;;;3.13;;
40204;SDS011;26963;42.666;23.366;2023-03-01T06:35:41;5.10;;;3.38;;
40204;SDS011;26963;42.666;23.366;2023-03-01T06:38:06;4.80;;;3.53;;
40204;SDS011;26963;42.666;23.366;2023-03-01T06:40:32;5.10;;;3.15;;
40204;SDS011;26963;42.666;23.366;2023-03-01T06:43:00;7.20;;;2.88;;
40204;SDS011;26963;42.666;23.366;2023-03-01T06:45:26;4.03;;;2.58;;
40204;SDS011;26963;42.666;23.366;2023-03-01T06:47:51;4.03;;;2.63;;
40204;SDS011;26963;42.666;23.366;2023-03-01T06:50:17;4.43;;;3.00;;
40204;SDS011;26963;42.666;23.366;2023-03-01T06:52:43;4.68;;;3.60;;
40204;SDS011;26963;42.666;23.366;2023-03-01T06:55:12;6.55;;;3.70;;
40204;SDS011;26963;42.666;23.366;2023-03-01T06:57:39;4.25;;;3.10;;
40204;SDS011;26963;42.666;23.366;2023-03-01T07:00:05;4.20;;;3.10;;
40204;SDS011;26963;42.666;23.366;2023-03-01T07:02:32;5.45;;;2.65;;
40204;SDS011;26963;42.666;23.366;2023-03-01T07:04:57;4.95;;;2.75;;
40204;SDS011;26963;42.666;23.366;2023-03-01T07:07:23;4.75;;;2.70;;
40204;SDS011;26963;42.666;23.366;2023-03-01T07:09:48;3.63;;;2.50;;
40204;SDS011;26963;42.666;23.366;2023-03-01T07:12:14;5.78;;;2.67;;
40204;SDS011;26963;42.666;23.366;2023-03-01T07:14:40;8.38;;;4.22;;
40204;SDS011;26963;42.666;23.366;2023-03-01T07:17:06;3.85;;;2.55;;
40204;SDS011;26963;42.666;23.366;2023-03-01T07:19:32;4.25;;;2.35;;
40204;SDS011;26963;42.666;23.366;2023-03-01T07:24:42;4.97;;;3.20;;
40204;SDS011;26963;42.666;23.366;2023-03-01T07:27:08;3.83;;;2.58;;
40204;SDS011;26963;42.666;23.366;2023-03-01T07:29:34;5.32;;;3.20;;
40204;SDS011;26963;42.666;23.366;2023-03-01T07:32:02;5.50;;;3.08;;
40204;SDS011;26963;42.666;23.366;2023-03-01T07:34:28;5.72;;;3.08;;
40204;SDS011;26963;42.666;23.366;2023-03-01T07:36:54;4.90;;;3.00;;
40204;SDS011;26963;42.666;23.366;2023-03-01T07:39:19;6.15;;;2.88;;
40204;SDS011;26963;42.666;23.366;2023-03-01T07:41:45;5.32;;;2.92;;
40204;SDS011;26963;42.666;23.366;2023-03-01T07:44:10;3.63;;;2.25;;
40204;SDS011;26963;42.666;23.366;2023-03-01T07:46:36;5.47;;;2.20;;
40204;SDS011;26963;42.666;23.366;2023-03-01T07:49:01;6.10;;;2.42;;
40204;SDS011;26963;42.666;23.366;2023-03-01T07:51:27;3.20;;;2.45;;
40204;SDS011;26963;42.666;23.366;2023-03-01T07:53:52;4.35;;;2.45;;
40204;SDS011;26963;42.666;23.366;2023-03-01T07:56:18;4.60;;;2.10;;
40204;SDS011;26963;42.666;23.366;2023-03-01T07:58:44;5.47;;;1.75;;
40204;SDS011;26963;42.666;23.366;2023-03-01T08:01:11;6.95;;;2.50;;
40204;SDS011;26963;42.666;23.366;2023-03-01T08:03:39;4.00;;;2.42;;
40204;SDS011;26963;42.666;23.366;2023-03-01T08:06:05;6.20;;;2.30;;
40204;SDS011;26963;42.666;23.366;2023-03-01T08:08:32;4.85;;;2.25;;
40204;SDS011;26963;42.666;23.366;2023-03-01T08:10:59;4.72;;;1.77;;
40204;SDS011;26963;42.666;23.366;2023-03-01T08:13:26;3.28;;;1.70;;
40204;SDS011;26963;42.666;23.366;2023-03-01T08:15:51;4.32;;;1.85;;
40204;SDS011;26963;42.666;23.366;2023-03-01T08:18:18;3.95;;;1.92;;
40204;SDS011;26963;42.666;23.366;2023-03-01T08:20:44;4.57;;;2.03;;
40204;SDS011;26963;42.666;23.366;2023-03-01T08:23:11;3.33;;;1.95;;
40204;SDS011;26963;42.666;23.366;2023-03-01T08:25:37;4.47;;;1.90;;
40204;SDS011;26963;42.666;23.366;2023-03-01T08:28:02;5.05;;;3.70;;
40204;SDS011;26963;42.666;23.366;2023-03-01T08:30:28;3.58;;;2.30;;
40204;SDS011;26963;42.666;23.366;2023-03-01T08:32:54;3.63;;;2.67;;
40204;SDS011;26963;42.666;23.366;2023-03-01T08:35:21;6.18;;;2.42;;
40204;SDS011;26963;42.666;23.366;2023-03-01T08:37:47;5.28;;;2.22;;
40204;SDS011;26963;42.666;23.366;2023-03-01T08:40:13;3.85;;;2.10;;
40204;SDS011;26963;42.666;23.366;2023-03-01T08:42:39;3.40;;;2.40;;
40204;SDS011;26963;42.666;23.366;2023-03-01T08:45:06;3.42;;;2.38;;
40204;SDS011;26963;42.666;23.366;2023-03-01T08:47:33;4.45;;;2.53;;
40204;SDS011;26963;42.666;23.366;2023-03-01T08:49:59;4.25;;;2.50;;
40204;SDS011;26963;42.666;23.366;2023-03-01T08:52:25;4.57;;;2.47;;
40204;SDS011;26963;42.666;23.366;2023-03-01T08:54:51;3.45;;;2.72;;
40204;SDS011;26963;42.666;23.366;2023-03-01T08:57:17;3.13;;;2.75;;
40204;SDS011;26963;42.666;23.366;2023-03-01T08:59:43;3.95;;;2.60;;
40204;SDS011;26963;42.666;23.366;2023-03-01T09:02:11;4.65;;;2.97;;
40204;SDS011;26963;42.666;23.366;2023-03-01T09:04:42;7.25;;;2.90;;
40204;SDS011;26963;42.666;23.366;2023-03-01T09:07:08;3.47;;;2.25;;
40204;SDS011;26963;42.666;23.366;2023-03-01T09:09:34;2.97;;;2.50;;
40204;SDS011;26963;42.666;23.366;2023-03-01T09:12:00;5.60;;;2.45;;
40204;SDS011;26963;42.666;23.366;2023-03-01T09:14:26;3.67;;;2.13;;
40204;SDS011;26963;42.666;23.366;2023-03-01T09:16:52;4.80;;;2.38;;
40204;SDS011;26963;42.666;23.366;2023-03-01T09:19:18;3.45;;;2.70;;
40204;SDS011;26963;42.666;23.366;2023-03-01T09:21:44;3.92;;;2.35;;
40204;SDS011;26963;42.666;23.366;2023-03-01T09:24:22;3.10;;;1.98;;
40204;SDS011;26963;42.666;23.366;2023-03-01T09:26:48;4.88;;;2.17;;
40204;SDS011;26963;42.666;23.366;2023-03-01T09:29:14;2.13;;;1.83;;
40204;SDS011;26963;42.666;23.366;2023-03-01T09:31:41;2.33;;;1.63;;
40204;SDS011;26963;42.666;23.366;2023-03-01T09:34:08;1.73;;;1.40;;
40204;SDS011;26963;42.666;23.366;2023-03-01T09:36:34;1.83;;;1.40;;
40204;SDS011;26963;42.666;23.366;2023-03-01T09:39:00;2.20;;;1.55;;
40204;SDS011;26963;42.666;23.366;2023-03-01T09:41:46;2.38;;;1.55;;
40204;SDS011;26963;42.666;23.366;2023-03-01T09:44:29;2.22;;;1.60;;
40204;SDS011;26963;42.666;23.366;2023-03-01T09:46:59;2.03;;;1.50;;
40204;SDS011;26963;42.666;23.366;2023-03-01T09:49:35;1.52;;;1.40;;
40204;SDS011;26963;42.666;23.366;2023-03-01T09:55:13;2.90;;;1.67;;
40204;SDS011;26963;42.666;23.366;2023-03-01T10:11:04;1.75;;;1.45;;
40204;SDS011;26963;42.666;23.366;2023-03-01T10:19:23;2.97;;;1.90;;
40204;SDS011;26963;42.666;23.366;2023-03-01T10:21:54;2.17;;;1.70;;
40204;SDS011;26963;42.666;23.366;2023-03-01T10:24:25;4.47;;;1.75;;
40204;SDS011;26963;42.666;23.366;2023-03-01T10:26:56;2.65;;;1.70;;
40204;SDS011;26963;42.666;23.366;2023-03-01T10:29:26;2.70;;;1.52;;
40204;SDS011;26963;42.666;23.366;2023-03-01T10:31:59;4.13;;;1.75;;
40204;SDS011;26963;42.666;23.366;2023-03-01T10:34:30;3.90;;;1.92;;
40204;SDS011;26963;42.666;23.366;2023-03-01T10:37:17;3.35;;;2.10;;
40204;SDS011;26963;42.666;23.366;2023-03-01T10:40:05;4.18;;;2.30;;
40204;SDS011;26963;42.666;23.366;2023-03-01T10:42:34;2.72;;;1.90;;
40204;SDS011;26963;42.666;23.366;2023-03-01T10:50:39;4.70;;;2.15;;
40204;SDS011;26963;42.666;23.366;2023-03-01T10:58:26;4.95;;;2.15;;
40204;SDS011;26963;42.666;23.366;2023-03-01T11:00:56;2.30;;;1.85;;
40204;SDS011;26963;42.666;23.366;2023-03-01T11:03:31;3.05;;;1.75;;
40204;SDS011;26963;42.666;23.366;2023-03-01T11:06:05;5.15;;;2.00;;
40204;SDS011;26963;42.666;23.366;2023-03-01T11:08:40;2.88;;;1.98;;
40204;SDS011;26963;42.666;23.366;2023-03-01T11:11:16;3.00;;;2.10;;
40204;SDS011;26963;42.666;23.366;2023-03-01T11:21:37;3.28;;;2.10;;
40204;SDS011;26963;42.666;23.366;2023-03-01T11:24:08;2.10;;;1.70;;
40204;SDS011;26963;42.666;23.366;2023-03-01T11:26:38;4.35;;;1.70;;
40204;SDS011;26963;42.666;23.366;2023-03-01T11:31:56;5.20;;;2.47;;
40204;SDS011;26963;42.666;23.366;2023-03-01T11:35:13;3.42;;;2.40;;
40204;SDS011;26963;42.666;23.366;2023-03-01T11:37:22;7.53;;;2.70;;
40204;SDS011;26963;42.666;23.366;2023-03-01T11:44:59;2.80;;;2.17;;
40204;SDS011;26963;42.666;23.366;2023-03-01T11:47:39;4.30;;;2.38;;
40204;SDS011;26963;42.666;23.366;2023-03-01T11:53:01;3.65;;;2.40;;
40204;SDS011;26963;42.666;23.366;2023-03-01T12:01:47;4.10;;;2.70;;
40204;SDS011;26963;42.666;23.366;2023-03-01T12:12:30;4.60;;;3.33;;
40204;SDS011;26963;42.666;23.366;2023-03-01T12:17:41;4.97;;;3.58;;
40204;SDS011;26963;42.666;23.366;2023-03-01T12:23:03;4.72;;;3.42;;
40204;SDS011;26963;42.666;23.366;2023-03-01T12:29:20;5.05;;;3.38;;
40204;SDS011;26963;42.666;23.366;2023-03-01T12:31:58;4.78;;;3.65;;
40204;SDS011;26963;42.666;23.366;2023-03-01T12:43:47;4.07;;;3.33;;
40204;SDS011;26963;42.666;23.366;2023-03-01T12:51:36;5.20;;;3.70;;
40204;SDS011;26963;42.666;23.366;2023-03-01T12:54:11;5.38;;;3.75;;
40204;SDS011;26963;42.666;23.366;2023-03-01T12:56:40;5.57;;;3.97;;
40204;SDS011;26963;42.666;23.366;2023-03-01T13:02:03;5.60;;;3.90;;
40204;SDS011;26963;42.666;23.366;2023-03-01T13:04:33;4.70;;;3.47;;
40204;SDS011;26963;42.666;23.366;2023-03-01T13:09:50;5.70;;;3.55;;
40204;SDS011;26963;42.666;23.366;2023-03-01T13:17:58;4.15;;;3.45;;
40204;SDS011;26963;42.666;23.366;2023-03-01T13:23:23;5.40;;;3.35;;
40204;SDS011;26963;42.666;23.366;2023-03-01T13:26:02;4.15;;;3.28;;
40204;SDS011;26963;42.666;23.366;2023-03-01T13:28:39;5.22;;;3.10;;
40204;SDS011;26963;42.666;23.366;2023-03-01T13:36:10;3.97;;;2.78;;
40204;SDS011;26963;42.666;23.366;2023-03-01T13:49:35;4.47;;;3.05;;
40204;SDS011;26963;42.666;23.366;2023-03-01T13:55:06;4.55;;;3.75;;
40204;SDS011;26963;42.666;23.366;2023-03-01T13:57:38;5.55;;;3.67;;
40204;SDS011;26963;42.666;23.366;2023-03-01T14:00:05;5.25;;;3.67;;
40204;SDS011;26963;42.666;23.366;2023-03-01T14:02:31;4.47;;;3.20;;
40204;SDS011;26963;42.666;23.366;2023-03-01T14:04:57;4.93;;;3.60;;
40204;SDS011;26963;42.666;23.366;2023-03-01T14:07:25;5.35;;;3.50;;
40204;SDS011;26963;42.666;23.366;2023-03-01T14:09:56;6.68;;;3.70;;
40204;SDS011;26963;42.666;23.366;2023-03-01T14:20:27;4.78;;;3.13;;
40204;SDS011;26963;42.666;23.366;2023-03-01T14:22:57;6.25;;;3.10;;
40204;SDS011;26963;42.666;23.366;2023-03-01T14:27:54;4.57;;;2.88;;
40204;SDS011;26963;42.666;23.366;2023-03-01T14:30:25;4.28;;;2.83;;
40204;SDS011;26963;42.666;23.366;2023-03-01T14:33:33;5.75;;;2.60;;
40204;SDS011;26963;42.666;23.366;2023-03-01T14:36:00;6.03;;;2.70;;
40204;SDS011;26963;42.666;23.366;2023-03-01T14:38:38;6.15;;;2.60;;
40204;SDS011;26963;42.666;23.366;2023-03-01T14:41:11;6.10;;;2.90;;
40204;SDS011;26963;42.666;23.366;2023-03-01T14:43:44;4.35;;;2.80;;
40204;SDS011;26963;42.666;23.366;2023-03-01T14:46:55;6.53;;;2.85;;
40204;SDS011;26963;42.666;23.366;2023-03-01T14:51:42;6.53;;;2.72;;
40204;SDS011;26963;42.666;23.366;2023-03-01T14:54:23;5.00;;;3.22;;
40204;SDS011;26963;42.666;23.366;2023-03-01T14:56:49;7.90;;;4.78;;
40204;SDS011;26963;42.666;23.366;2023-03-01T14:59:23;5.97;;;3.25;;
40204;SDS011;26963;42.666;23.366;2023-03-01T15:01:50;7.47;;;2.97;;
40204;SDS011;26963;42.666;23.366;2023-03-01T15:04:18;7.43;;;3.15;;
40204;SDS011;26963;42.666;23.366;2023-03-01T15:06:47;8.45;;;3.00;;
40204;SDS011;26963;42.666;23.366;2023-03-01T15:09:19;6.03;;;2.97;;
40204;SDS011;26963;42.666;23.366;2023-03-01T15:11:46;8.80;;;2.92;;
40204;SDS011;26963;42.666;23.366;2023-03-01T15:19:52;4.88;;;2.97;;
40204;SDS011;26963;42.666;23.366;2023-03-01T15:22:18;5.43;;;2.90;;
40204;SDS011;26963;42.666;23.366;2023-03-01T15:24:46;6.68;;;3.80;;
40204;SDS011;26963;42.666;23.366;2023-03-01T15:27:15;6.07;;;3.50;;
40204;SDS011;26963;42.666;23.366;2023-03-01T15:29:48;5.68;;;3.25;;
40204;SDS011;26963;42.666;23.366;2023-03-01T15:34:53;8.98;;;4.30;;
40204;SDS011;26963;42.666;23.366;2023-03-01T15:40:26;6.50;;;3.90;;
40204;SDS011;26963;42.666;23.366;2023-03-01T15:43:05;5.38;;;3.53;;
40204;SDS011;26963;42.666;23.366;2023-03-01T15:45:32;6.22;;;3.35;;
40204;SDS011;26963;42.666;23.366;2023-03-01T15:48:03;5.00;;;2.47;;
40204;SDS011;26963;42.666;23.366;2023-03-01T15:50:34;6.82;;;2.78;;
40204;SDS011;26963;42.666;23.366;2023-03-01T15:53:06;6.88;;;4.28;;
40204;SDS011;26963;42.666;23.366;2023-03-01T15:55:36;8.65;;;2.75;;
40204;SDS011;26963;42.666;23.366;2023-03-01T15:58:12;5.18;;;3.20;;
40204;SDS011;26963;42.666;23.366;2023-03-01T16:00:39;6.13;;;4.18;;
40204;SDS011;26963;42.666;23.366;2023-03-01T16:03:05;5.30;;;3.97;;
40204;SDS011;26963;42.666;23.366;2023-03-01T16:05:33;7.10;;;4.47;;
40204;SDS011;26963;42.666;23.366;2023-03-01T16:08:01;6.20;;;4.25;;
40204;SDS011;26963;42.666;23.366;2023-03-01T16:10:28;7.85;;;4.68;;
40204;SDS011;26963;42.666;23.366;2023-03-01T16:12:54;6.40;;;4.65;;
40204;SDS011;26963;42.666;23.366;2023-03-01T16:15:20;7.97;;;4.85;;
40204;SDS011;26963;42.666;23.366;2023-03-01T16:17:48;6.75;;;4.68;;
40204;SDS011;26963;42.666;23.366;2023-03-01T16:20:14;9.15;;;4.82;;
40204;SDS011;26963;42.666;23.366;2023-03-01T16:22:41;8.20;;;4.90;;
40204;SDS011;26963;42.666;23.366;2023-03-01T16:25:09;8.10;;;4.55;;
40204;SDS011;26963;42.666;23.366;2023-03-01T16:27:38;6.20;;;4.00;;
40204;SDS011;26963;42.666;23.366;2023-03-01T16:30:07;8.40;;;4.78;;
40204;SDS011;26963;42.666;23.366;2023-03-01T16:32:38;5.65;;;4.03;;
40204;SDS011;26963;42.666;23.366;2023-03-01T16:35:04;7.35;;;4.35;;
40204;SDS011;26963;42.666;23.366;2023-03-01T16:37:32;6.25;;;3.55;;
40204;SDS011;26963;42.666;23.366;2023-03-01T16:39:58;6.20;;;3.85;;
40204;SDS011;26963;42.666;23.366;2023-03-01T16:42:24;6.45;;;3.65;;
40204;SDS011;26963;42.666;23.366;2023-03-01T16:44:54;7.28;;;4.30;;
40204;SDS011;26963;42.666;23.366;2023-03-01T16:47:20;6.93;;;4.60;;
40204;SDS011;26963;42.666;23.366;2023-03-01T16:49:46;8.20;;;4.05;;
40204;SDS011;26963;42.666;23.366;2023-03-01T16:52:11;7.13;;;4.60;;
40204;SDS011;26963;42.666;23.366;2023-03-01T16:54:37;7.97;;;4.60;;
40204;SDS011;26963;42.666;23.366;2023-03-01T16:57:02;8.02;;;4.20;;
40204;SDS011;26963;42.666;23.366;2023-03-01T16:59:28;5.57;;;3.47;;
40204;SDS011;26963;42.666;23.366;2023-03-01T17:01:53;6.97;;;4.00;;
40204;SDS011;26963;42.666;23.366;2023-03-01T17:04:19;6.88;;;4.00;;
40204;SDS011;26963;42.666;23.366;2023-03-01T17:06:45;7.43;;;3.53;;
40204;SDS011;26963;42.666;23.366;2023-03-01T17:09:11;5.15;;;3.80;;
40204;SDS011;26963;42.666;23.366;2023-03-01T17:11:37;6.85;;;4.25;;
40204;SDS011;26963;42.666;23.366;2023-03-01T17:14:03;7.35;;;3.85;;
40204;SDS011;26963;42.666;23.366;2023-03-01T17:16:28;7.32;;;4.10;;
40204;SDS011;26963;42.666;23.366;2023-03-01T17:18:54;5.57;;;4.35;;
40204;SDS011;26963;42.666;23.366;2023-03-01T17:21:19;6.20;;;4.88;;
40204;SDS011;26963;42.666;23.366;2023-03-01T17:23:45;5.68;;;4.50;;
40204;SDS011;26963;42.666;23.366;2023-03-01T17:26:12;6.80;;;5.13;;
40204;SDS011;26963;42.666;23.366;2023-03-01T17:28:37;8.60;;;5.95;;
40204;SDS011;26963;42.666;23.366;2023-03-01T17:31:04;10.02;;;5.97;;